createdAt,value
2018-09-21T00:00:36.820Z,99.9
2018-09-21T00:01:44.030Z,99.9
2018-09-21T00:02:51.243Z,99.9
2018-09-21T00:03:58.456Z,99.9
2018-09-21T00:05:05.665Z,99.9
2018-09-21T00:06:12.878Z,99.9
2018-09-21T00:07:20.089Z,99.9
2018-09-21T00:08:27.030Z,99.9
2018-09-21T00:09:34.240Z,99.9
2018-09-21T00:10:41.449Z,99.9
2018-09-21T00:11:48.670Z,99.9
2018-09-21T00:12:55.879Z,99.9
2018-09-21T00:14:03.309Z,99.9
2018-09-21T00:15:10.519Z,99.9
2018-09-21T00:16:17.729Z,99.9
2018-09-21T00:17:24.943Z,99.9
2018-09-21T00:18:32.158Z,99.9
2018-09-21T00:19:39.374Z,99.9
2018-09-21T00:20:46.589Z,99.9
2018-09-21T00:21:53.261Z,99.9
2018-09-21T00:23:00.490Z,99.9
2018-09-21T00:24:07.436Z,99.9
2018-09-21T00:25:14.649Z,99.9
2018-09-21T00:26:21.868Z,99.9
2018-09-21T00:27:29.083Z,99.9
2018-09-21T00:28:36.296Z,99.9
2018-09-21T00:29:43.513Z,99.9
2018-09-21T00:30:50.727Z,99.9
2018-09-21T00:31:57.944Z,99.9
2018-09-21T00:33:05.152Z,99.9
2018-09-21T00:34:12.370Z,99.9
2018-09-21T00:35:19.588Z,99.9
2018-09-21T00:36:26.798Z,99.9
2018-09-21T00:37:34.016Z,99.9
2018-09-21T00:38:41.225Z,99.9
2018-09-21T00:39:48.440Z,99.9
2018-09-21T00:40:55.650Z,99.9
2018-09-21T00:42:02.865Z,99.9
2018-09-21T00:43:10.078Z,99.9
2018-09-21T00:44:17.025Z,99.9
2018-09-21T00:45:24.236Z,99.9
2018-09-21T00:46:31.451Z,99.9
2018-09-21T00:47:38.669Z,99.9
2018-09-21T00:48:45.886Z,99.9
2018-09-21T00:49:52.839Z,99.9
2018-09-21T00:51:00.057Z,99.9
2018-09-21T00:52:07.276Z,99.9
2018-09-21T00:53:14.487Z,99.9
2018-09-21T00:54:21.699Z,99.9
2018-09-21T00:55:28.924Z,99.9
2018-09-21T00:56:35.867Z,99.9
2018-09-21T00:57:43.085Z,99.9
2018-09-21T00:58:50.295Z,99.9
2018-09-21T00:59:57.507Z,99.9
2018-09-21T01:01:04.720Z,99.9
2018-09-21T01:02:11.934Z,99.9
2018-09-21T01:03:19.149Z,99.9
2018-09-21T01:04:26.089Z,99.9
2018-09-21T01:05:33.313Z,99.9
2018-09-21T01:06:40.245Z,99.9
2018-09-21T01:07:47.461Z,99.9
2018-09-21T01:08:54.668Z,99.9
2018-09-21T01:10:01.884Z,99.9
2018-09-21T01:11:09.096Z,99.9
2018-09-21T01:12:16.037Z,99.9
2018-09-21T01:13:23.253Z,99.9
2018-09-21T01:14:30.471Z,99.9
2018-09-21T01:15:37.679Z,99.9
2018-09-21T01:16:44.888Z,99.9
2018-09-21T01:17:52.100Z,99.9
2018-09-21T01:18:59.314Z,99.9
2018-09-21T01:21:28.120Z,99.9
2018-09-21T01:22:35.338Z,99.9
2018-09-21T01:23:42.560Z,99.9
2018-09-21T01:24:49.771Z,99.9
2018-09-21T01:25:56.998Z,99.9
2018-09-21T01:27:04.208Z,99.9
2018-09-21T01:28:11.420Z,99.9
2018-09-21T01:29:18.641Z,99.9
2018-09-21T01:30:25.850Z,99.9
2018-09-21T01:31:33.066Z,99.9
2018-09-21T01:32:40.287Z,99.9
2018-09-21T01:33:47.616Z,99.9
2018-09-21T01:34:54.551Z,99.9
2018-09-21T01:36:01.762Z,99.9
2018-09-21T01:37:08.976Z,99.9
2018-09-21T01:38:16.192Z,99.9
2018-09-21T01:39:23.454Z,99.9
2018-09-21T01:40:30.661Z,99.9
2018-09-21T01:41:37.606Z,99.9
2018-09-21T01:42:44.820Z,99.9
2018-09-21T01:43:52.034Z,99.9
2018-09-21T01:44:59.252Z,99.9
2018-09-21T01:46:06.458Z,99.9
2018-09-21T01:47:13.669Z,99.9
2018-09-21T01:48:20.889Z,99.9
2018-09-21T01:49:28.100Z,99.9
2018-09-21T01:50:35.404Z,99.9
2018-09-21T01:51:43.031Z,99.9
2018-09-21T01:52:50.254Z,99.9
2018-09-21T01:53:57.470Z,99.9
2018-09-21T01:55:04.684Z,99.9
2018-09-21T01:56:11.893Z,99.9
2018-09-21T01:57:19.148Z,99.9
2018-09-21T01:58:26.352Z,99.9
2018-09-21T01:59:33.562Z,99.9
2018-09-21T02:00:40.776Z,99.9
2018-09-21T02:01:47.997Z,99.9
2018-09-21T02:02:54.933Z,99.9
2018-09-21T02:04:02.146Z,99.9
2018-09-21T02:05:09.356Z,99.9
2018-09-21T02:06:16.571Z,99.9
2018-09-21T02:07:23.785Z,99.9
2018-09-21T02:08:30.990Z,99.9
2018-09-21T02:09:38.219Z,99.9
2018-09-21T02:10:45.803Z,99.9
2018-09-21T02:11:53.003Z,99.9
2018-09-21T02:13:00.216Z,99.9
2018-09-21T02:14:07.427Z,99.9
2018-09-21T02:15:14.363Z,99.9
2018-09-21T02:16:21.299Z,99.9
2018-09-21T02:17:28.554Z,99.9
2018-09-21T02:18:35.797Z,99.9
2018-09-21T02:19:43.006Z,99.9
2018-09-21T02:20:50.219Z,99.9
2018-09-21T02:21:57.431Z,99.9
2018-09-21T02:23:04.647Z,99.9
2018-09-21T02:24:11.585Z,99.9
2018-09-21T02:25:18.532Z,99.9
2018-09-21T02:26:25.479Z,99.9
2018-09-21T02:27:32.691Z,99.9
2018-09-21T02:28:39.918Z,99.9
2018-09-21T02:29:47.125Z,99.9
2018-09-21T02:30:54.365Z,99.9
2018-09-21T02:32:01.299Z,99.9
2018-09-21T02:33:08.508Z,99.9
2018-09-21T02:34:15.720Z,99.9
2018-09-21T02:35:22.930Z,99.9
2018-09-21T02:36:30.143Z,99.9
2018-09-21T02:37:37.358Z,99.9
2018-09-21T02:38:44.570Z,99.9
2018-09-21T02:39:51.778Z,99.9
2018-09-21T02:40:58.991Z,99.9
2018-09-21T02:42:06.202Z,99.9
2018-09-21T02:43:13.412Z,99.9
2018-09-21T02:44:20.625Z,99.9
2018-09-21T02:45:27.558Z,99.9
2018-09-21T02:46:34.773Z,99.9
2018-09-21T02:47:41.703Z,99.9
2018-09-21T02:48:49.017Z,99.9
2018-09-21T02:49:56.452Z,99.9
2018-09-21T02:51:03.663Z,99.9
2018-09-21T02:52:10.876Z,99.9
2018-09-21T02:53:18.085Z,99.9
2018-09-21T02:54:25.298Z,99.9
2018-09-21T02:55:32.243Z,99.9
2018-09-21T02:56:39.452Z,99.9
2018-09-21T02:57:46.661Z,99.9
2018-09-21T02:58:53.870Z,99.9
2018-09-21T03:00:01.076Z,99.9
2018-09-21T03:01:08.285Z,99.9
2018-09-21T03:02:15.494Z,99.9
2018-09-21T03:03:22.707Z,99.9
2018-09-21T03:04:29.645Z,99.9
2018-09-21T03:05:36.860Z,99.9
2018-09-21T03:06:44.072Z,99.9
2018-09-21T03:07:51.283Z,99.9
2018-09-21T03:08:58.494Z,99.9
2018-09-21T03:10:05.720Z,99.9
2018-09-21T03:11:12.650Z,99.9
2018-09-21T03:12:19.863Z,99.9
2018-09-21T03:13:27.082Z,99.9
2018-09-21T03:14:34.295Z,99.9
2018-09-21T03:15:41.508Z,99.9
2018-09-21T03:16:48.720Z,99.9
2018-09-21T03:17:55.970Z,99.9
2018-09-21T03:19:03.186Z,99.9
2018-09-21T03:20:10.402Z,99.9
2018-09-21T03:21:17.617Z,99.9
2018-09-21T03:22:24.829Z,99.9
2018-09-21T03:23:32.040Z,99.9
2018-09-21T03:24:38.981Z,99.9
2018-09-21T03:25:46.189Z,99.9
2018-09-21T03:26:53.402Z,99.9
2018-09-21T03:28:00.619Z,99.9
2018-09-21T03:29:07.832Z,99.9
2018-09-21T03:30:15.046Z,99.9
2018-09-21T03:31:22.259Z,99.9
2018-09-21T03:32:29.467Z,99.9
2018-09-21T03:33:36.678Z,99.9
2018-09-21T03:34:43.887Z,99.9
2018-09-21T03:35:50.834Z,99.9
2018-09-21T03:36:58.040Z,99.9
2018-09-21T03:38:05.251Z,99.9
2018-09-21T03:39:12.460Z,99.9
2018-09-21T03:40:19.684Z,99.9
2018-09-21T03:41:26.892Z,99.9
2018-09-21T03:42:34.096Z,99.9
2018-09-21T03:43:41.307Z,99.9
2018-09-21T03:45:55.430Z,99.9
2018-09-21T03:47:02.641Z,99.9
2018-09-21T03:48:09.854Z,99.9
2018-09-21T03:49:17.074Z,99.9
2018-09-21T03:50:24.287Z,99.9
2018-09-21T03:51:31.496Z,99.9
2018-09-21T03:52:38.701Z,99.9
2018-09-21T03:53:45.908Z,99.9
2018-09-21T03:54:52.844Z,99.9
2018-09-21T03:55:59.810Z,99.9
2018-09-21T03:57:07.023Z,99.9
2018-09-21T03:58:14.233Z,99.9
2018-09-21T03:59:21.446Z,99.9
2018-09-21T04:00:28.665Z,99.9
2018-09-21T04:01:35.875Z,99.9
2018-09-21T04:02:43.094Z,99.9
2018-09-21T04:03:50.309Z,99.9
2018-09-21T04:04:57.522Z,99.9
2018-09-21T04:06:04.731Z,99.9
2018-09-21T04:07:11.672Z,99.9
2018-09-21T04:08:18.892Z,99.9
2018-09-21T04:09:26.102Z,99.9
2018-09-21T04:10:33.317Z,99.9
2018-09-21T04:11:40.535Z,99.9
2018-09-21T04:12:47.751Z,99.9
2018-09-21T04:13:54.965Z,99.9
2018-09-21T04:15:02.187Z,99.9
2018-09-21T04:16:09.417Z,99.9
2018-09-21T04:17:16.630Z,99.9
2018-09-21T04:18:23.845Z,99.9
2018-09-21T04:19:30.790Z,99.9
2018-09-21T04:20:37.998Z,99.9
2018-09-21T04:21:45.211Z,99.9
2018-09-21T04:22:52.454Z,99.9
2018-09-21T04:23:59.726Z,99.9
2018-09-21T04:25:06.938Z,99.9
2018-09-21T04:26:14.148Z,99.9
2018-09-21T04:27:21.364Z,99.9
2018-09-21T04:28:28.575Z,99.9
2018-09-21T04:29:35.785Z,99.9
2018-09-21T04:30:42.998Z,99.9
2018-09-21T04:31:49.930Z,99.9
2018-09-21T04:32:57.137Z,99.9
2018-09-21T04:34:04.357Z,99.9
2018-09-21T04:35:11.560Z,99.9
2018-09-21T04:36:18.782Z,99.9
2018-09-21T04:37:25.990Z,99.9
2018-09-21T04:38:33.209Z,99.9
2018-09-21T04:39:40.422Z,99.9
2018-09-21T04:40:47.846Z,99.9
2018-09-21T04:41:54.514Z,99.9
2018-09-21T04:43:01.731Z,99.9
2018-09-21T04:44:08.950Z,99.9
2018-09-21T04:45:16.161Z,99.9
2018-09-21T04:46:23.384Z,99.9
2018-09-21T04:47:30.594Z,99.9
2018-09-21T04:48:37.808Z,99.9
2018-09-21T04:49:45.032Z,99.9
2018-09-21T04:50:52.244Z,99.9
2018-09-21T04:51:59.461Z,99.9
2018-09-21T04:53:06.682Z,99.9
2018-09-21T04:54:13.882Z,99.9
2018-09-21T04:55:20.817Z,99.9
2018-09-21T04:56:28.032Z,99.9
2018-09-21T04:57:34.977Z,99.9
2018-09-21T04:58:41.921Z,99.9
2018-09-21T04:59:48.864Z,99.9
2018-09-21T05:00:56.076Z,99.9
2018-09-21T05:02:03.287Z,99.9
2018-09-21T05:03:10.229Z,99.9
2018-09-21T05:04:17.440Z,99.9
2018-09-21T05:05:24.654Z,99.9
2018-09-21T05:06:31.589Z,99.9
2018-09-21T05:07:38.796Z,99.9
2018-09-21T05:08:46.009Z,99.9
2018-09-21T05:09:53.221Z,99.9
2018-09-21T05:11:00.436Z,99.9
2018-09-21T05:12:07.648Z,99.9
2018-09-21T05:13:14.859Z,99.9
2018-09-21T05:14:22.069Z,99.9
2018-09-21T05:15:29.280Z,99.9
2018-09-21T05:16:36.496Z,99.9
2018-09-21T05:17:43.711Z,99.9
2018-09-21T05:18:50.917Z,99.9
2018-09-21T05:19:58.131Z,99.9
2018-09-21T05:21:05.343Z,99.9
2018-09-21T05:22:12.558Z,99.9
2018-09-21T05:23:19.778Z,99.9
2018-09-21T05:24:26.990Z,99.9
2018-09-21T05:25:34.205Z,99.9
2018-09-21T05:26:41.158Z,99.9
2018-09-21T05:27:48.362Z,99.9
2018-09-21T05:28:55.577Z,99.9
2018-09-21T05:30:02.787Z,99.9
2018-09-21T05:31:10.000Z,99.9
2018-09-21T05:32:17.214Z,99.9
2018-09-21T05:33:24.430Z,99.9
2018-09-21T05:34:31.476Z,99.9
2018-09-21T05:35:39.121Z,99.9
2018-09-21T05:36:46.336Z,99.9
2018-09-21T05:37:53.559Z,99.9
2018-09-21T05:39:00.774Z,99.9
2018-09-21T05:40:07.985Z,99.9
2018-09-21T05:41:15.193Z,99.9
2018-09-21T05:42:22.401Z,99.9
2018-09-21T05:43:29.614Z,99.9
2018-09-21T05:44:36.831Z,99.9
2018-09-21T05:45:44.051Z,99.9
2018-09-21T05:46:51.002Z,99.9
2018-09-21T05:47:58.215Z,99.9
2018-09-21T05:49:05.425Z,99.9
2018-09-21T05:50:12.634Z,99.9
2018-09-21T05:51:19.858Z,99.9
2018-09-21T05:52:27.069Z,99.9
2018-09-21T05:53:34.011Z,99.9
2018-09-21T05:54:41.215Z,99.9
2018-09-21T05:55:48.431Z,99.9
2018-09-21T05:56:55.645Z,99.9
2018-09-21T05:58:02.857Z,99.9
2018-09-21T05:59:10.071Z,99.9
2018-09-21T06:00:17.280Z,99.9
2018-09-21T06:01:24.509Z,99.9
2018-09-21T06:02:31.791Z,99.9
2018-09-21T06:03:39.273Z,99.9
2018-09-21T06:04:46.485Z,99.9
2018-09-21T06:05:53.697Z,99.9
2018-09-21T06:07:00.911Z,99.9
2018-09-21T06:08:08.157Z,99.9
2018-09-21T06:09:15.868Z,99.9
2018-09-21T06:10:23.081Z,99.9
2018-09-21T06:11:30.293Z,99.9
2018-09-21T06:12:37.505Z,99.9
2018-09-21T06:13:44.798Z,99.9
2018-09-21T06:14:52.164Z,99.9
2018-09-21T06:15:59.380Z,99.9
2018-09-21T06:17:06.604Z,99.9
2018-09-21T06:18:13.829Z,99.9
2018-09-21T06:19:21.089Z,99.9
2018-09-21T06:20:28.440Z,99.9
2018-09-21T06:21:35.660Z,99.9
2018-09-21T06:22:46.152Z,99.9
2018-09-21T06:23:53.374Z,99.9
2018-09-21T06:25:00.587Z,99.9
2018-09-21T06:26:07.798Z,99.9
2018-09-21T06:27:15.012Z,99.9
2018-09-21T06:28:22.238Z,99.9
2018-09-21T06:29:29.458Z,99.9
2018-09-21T06:30:36.684Z,99.9
2018-09-21T06:31:43.629Z,99.9
2018-09-21T06:32:50.843Z,99.9
2018-09-21T06:33:58.065Z,99.9
2018-09-21T06:35:05.274Z,99.9
2018-09-21T06:36:12.485Z,99.9
2018-09-21T06:37:19.694Z,99.9
2018-09-21T06:38:26.919Z,99.9
2018-09-21T06:39:34.136Z,99.9
2018-09-21T06:40:41.357Z,99.9
2018-09-21T06:41:48.568Z,99.9
2018-09-21T06:42:55.512Z,99.9
2018-09-21T06:44:02.734Z,99.9
2018-09-21T06:45:09.684Z,99.9
2018-09-21T06:46:16.899Z,99.9
2018-09-21T06:47:24.140Z,99.9
2018-09-21T06:48:31.438Z,99.9
2018-09-21T06:49:38.657Z,99.9
2018-09-21T06:50:46.083Z,99.9
2018-09-21T06:51:53.300Z,99.9
2018-09-21T06:53:00.520Z,99.9
2018-09-21T06:54:07.778Z,99.9
2018-09-21T06:55:14.992Z,99.9
2018-09-21T06:56:21.665Z,99.9
2018-09-21T06:57:28.871Z,99.9
2018-09-21T06:58:35.818Z,99.9
2018-09-21T06:59:43.023Z,99.9
2018-09-21T07:00:50.239Z,99.9
2018-09-21T07:01:57.520Z,99.9
2018-09-21T07:03:04.973Z,99.9
2018-09-21T07:04:11.912Z,99.9
2018-09-21T07:05:19.123Z,99.9
2018-09-21T07:06:26.334Z,99.9
2018-09-21T07:07:33.546Z,99.9
2018-09-21T07:08:40.758Z,99.9
2018-09-21T07:09:47.700Z,99.9
2018-09-21T07:10:54.946Z,99.9
2018-09-21T07:12:02.160Z,99.9
2018-09-21T07:13:09.368Z,99.9
2018-09-21T07:14:16.312Z,99.9
2018-09-21T07:15:23.523Z,99.9
2018-09-21T07:16:30.740Z,99.9
2018-09-21T07:17:37.953Z,99.9
2018-09-21T07:18:45.167Z,99.9
2018-09-21T07:19:52.378Z,99.9
2018-09-21T07:20:59.597Z,99.9
2018-09-21T07:22:06.539Z,99.9
2018-09-21T07:23:13.761Z,99.9
2018-09-21T07:24:20.988Z,99.9
2018-09-21T07:25:27.663Z,99.9
2018-09-21T07:26:34.606Z,99.9
2018-09-21T07:27:41.819Z,99.9
2018-09-21T07:28:49.030Z,99.9
2018-09-21T07:29:56.278Z,99.9
2018-09-21T07:31:03.536Z,99.9
2018-09-21T07:32:10.823Z,99.9
2018-09-21T07:33:18.045Z,99.9
2018-09-21T07:34:25.265Z,99.9
2018-09-21T07:35:32.488Z,99.9
2018-09-21T07:36:39.702Z,99.9
2018-09-21T07:37:46.923Z,99.6
2018-09-21T07:38:54.157Z,99.9
2018-09-21T07:40:01.368Z,98.5
2018-09-21T07:41:08.593Z,99.9
2018-09-21T07:42:15.804Z,95.3
2018-09-21T07:43:23.023Z,94.8
2018-09-21T07:44:30.274Z,95.2
2018-09-21T07:45:37.849Z,95.2
2018-09-21T07:46:45.059Z,91.6
2018-09-21T07:47:52.281Z,89.9
2018-09-21T07:48:59.523Z,92.2
2018-09-21T07:50:07.157Z,87
2018-09-21T07:51:13.823Z,83.3
2018-09-21T07:52:21.051Z,82.4
2018-09-21T07:53:28.266Z,84.6
2018-09-21T07:54:35.485Z,82.6
2018-09-21T07:55:42.709Z,88.5
2018-09-21T07:56:49.926Z,84.1
2018-09-21T07:57:57.140Z,88.2
2018-09-21T07:59:04.359Z,80.4
2018-09-21T08:00:11.585Z,79.8
2018-09-21T08:01:18.817Z,78.8
2018-09-21T08:02:25.766Z,78.8
2018-09-21T08:03:32.926Z,83.9
2018-09-21T08:04:40.155Z,76.6
2018-09-21T08:05:47.388Z,77.1
2018-09-21T08:06:54.605Z,79.8
2018-09-21T08:08:01.835Z,73.2
2018-09-21T08:09:09.063Z,77.2
2018-09-21T08:10:16.283Z,74.7
2018-09-21T08:11:23.510Z,76.3
2018-09-21T08:12:30.720Z,76.5
2018-09-21T08:13:37.942Z,73.6
2018-09-21T08:14:44.619Z,75
2018-09-21T08:15:51.858Z,74.6
2018-09-21T08:16:59.070Z,72.9
2018-09-21T08:18:06.289Z,75.3
2018-09-21T08:19:13.511Z,74.5
2018-09-21T08:20:20.759Z,75.5
2018-09-21T08:21:27.975Z,79
2018-09-21T08:22:34.923Z,79.8
2018-09-21T08:23:42.151Z,80.2
2018-09-21T08:24:49.372Z,76.2
2018-09-21T08:25:56.593Z,78.4
2018-09-21T08:27:03.812Z,76.7
2018-09-21T08:28:10.760Z,73.6
2018-09-21T08:29:17.980Z,73.1
2018-09-21T08:30:25.194Z,72.9
2018-09-21T08:31:32.483Z,70.8
2018-09-21T08:32:40.060Z,67.8
2018-09-21T08:33:47.292Z,68.6
2018-09-21T08:34:54.513Z,68.2
2018-09-21T08:36:01.736Z,69
2018-09-21T08:37:09.024Z,66.4
2018-09-21T08:38:16.206Z,68
2018-09-21T08:39:23.149Z,67.7
2018-09-21T08:40:30.367Z,70.5
2018-09-21T08:41:37.589Z,69.1
2018-09-21T08:42:44.808Z,68.3
2018-09-21T08:43:52.036Z,67.8
2018-09-21T08:44:59.262Z,68.9
2018-09-21T08:46:06.479Z,69
2018-09-21T08:47:13.694Z,69.1
2018-09-21T08:49:42.542Z,67.2
2018-09-21T08:50:49.760Z,69.1
2018-09-21T08:51:56.976Z,66.5
2018-09-21T08:53:04.195Z,69.1
2018-09-21T08:54:11.428Z,68.4
2018-09-21T08:55:18.648Z,69.9
2018-09-21T08:56:25.864Z,67.7
2018-09-21T08:57:33.093Z,67.7
2018-09-21T08:58:40.319Z,69.7
2018-09-21T08:59:47.550Z,68
2018-09-21T09:00:54.768Z,67.3
2018-09-21T09:02:01.988Z,65.1
2018-09-21T09:03:09.235Z,64.8
2018-09-21T09:04:17.227Z,66.4
2018-09-21T09:05:24.455Z,66.2
2018-09-21T09:06:31.679Z,63.3
2018-09-21T09:07:38.911Z,65.6
2018-09-21T09:08:46.125Z,61.6
2018-09-21T09:09:53.344Z,60
2018-09-21T09:11:00.561Z,56.2
2018-09-21T09:12:07.787Z,55.9
2018-09-21T09:13:15.006Z,50.3
2018-09-21T09:14:22.230Z,50
2018-09-21T09:15:29.449Z,51.7
2018-09-21T09:16:36.676Z,50.7
2018-09-21T09:17:43.892Z,53.5
2018-09-21T09:18:51.111Z,51.9
2018-09-21T09:19:58.053Z,50.2
2018-09-21T09:21:05.279Z,50.9
2018-09-21T09:22:12.501Z,46.5
2018-09-21T09:23:19.519Z,50.2
2018-09-21T09:24:26.816Z,44.1
2018-09-21T09:25:34.108Z,46.5
2018-09-21T09:26:40.797Z,42.4
2018-09-21T09:27:48.013Z,40.5
2018-09-21T09:28:54.956Z,40.8
2018-09-21T09:30:02.252Z,39
2018-09-21T09:31:09.696Z,34.6
2018-09-21T09:32:16.915Z,34.8
2018-09-21T09:33:24.137Z,34.4
2018-09-21T09:34:31.359Z,36.9
2018-09-21T09:35:38.304Z,32.1
2018-09-21T09:36:45.260Z,31
2018-09-21T09:37:52.588Z,31.7
2018-09-21T09:38:59.807Z,32.1
2018-09-21T09:40:06.788Z,29.4
2018-09-21T09:41:14.012Z,28.5
2018-09-21T09:42:21.229Z,29.9
2018-09-21T09:43:28.499Z,28.2
2018-09-21T09:44:35.875Z,29
2018-09-21T09:45:43.114Z,28.2
2018-09-21T09:46:50.330Z,28.5
2018-09-21T09:47:57.547Z,29
2018-09-21T09:49:04.941Z,27.3
2018-09-21T09:50:12.750Z,29.7
2018-09-21T09:51:19.695Z,26.9
2018-09-21T09:52:26.916Z,26.4
2018-09-21T09:53:34.142Z,25.1
2018-09-21T09:54:41.103Z,26.2
2018-09-21T09:55:48.491Z,24.8
2018-09-21T09:56:55.717Z,25.5
2018-09-21T09:58:02.937Z,26.6
2018-09-21T09:59:10.151Z,23.1
2018-09-21T10:00:17.370Z,24
2018-09-21T10:01:24.592Z,23.9
2018-09-21T10:02:31.814Z,24
2018-09-21T10:03:38.789Z,24.4
2018-09-21T10:04:46.614Z,25
2018-09-21T10:05:53.829Z,23.7
2018-09-21T10:07:01.047Z,23.1
2018-09-21T10:08:08.265Z,23.2
2018-09-21T10:09:15.483Z,23.1
2018-09-21T10:10:22.798Z,24.7
2018-09-21T10:11:30.220Z,23.7
2018-09-21T10:12:37.440Z,23.7
2018-09-21T10:13:44.657Z,22.6
2018-09-21T10:14:51.878Z,23.6
2018-09-21T10:15:59.100Z,22.7
2018-09-21T10:17:06.046Z,23.7
2018-09-21T10:18:13.258Z,22.1
2018-09-21T10:19:20.473Z,22.1
2018-09-21T10:20:27.714Z,22.2
2018-09-21T10:21:34.959Z,22.9
2018-09-21T10:22:42.211Z,21.2
2018-09-21T10:23:49.429Z,22
2018-09-21T10:24:56.646Z,22.9
2018-09-21T10:26:03.901Z,21.5
2018-09-21T10:27:11.243Z,22.7
2018-09-21T10:28:19.049Z,22.4
2018-09-21T10:29:27.026Z,22.8
2018-09-21T10:30:34.003Z,20.8
2018-09-21T10:31:41.254Z,20.5
2018-09-21T10:32:48.255Z,21.7
2018-09-21T10:33:55.455Z,22.8
2018-09-21T10:35:02.402Z,22.7
2018-09-21T10:36:09.624Z,22.7
2018-09-21T10:37:16.843Z,24
2018-09-21T10:38:24.073Z,22.4
2018-09-21T10:39:31.286Z,22.9
2018-09-21T10:40:38.510Z,22.9
2018-09-21T10:41:45.735Z,22.1
2018-09-21T10:42:52.970Z,22.9
2018-09-21T10:44:00.328Z,23.1
2018-09-21T10:45:07.558Z,22.8
2018-09-21T10:46:14.513Z,22.8
2018-09-21T10:47:21.467Z,23.5
2018-09-21T10:48:28.691Z,23.1
2018-09-21T10:49:35.633Z,23.2
2018-09-21T10:50:42.868Z,22.9
2018-09-21T10:51:50.089Z,22.9
2018-09-21T10:52:57.023Z,24.3
2018-09-21T10:54:04.243Z,22.9
2018-09-21T10:55:11.471Z,24
2018-09-21T10:56:18.688Z,25.2
2018-09-21T10:57:25.910Z,23.1
2018-09-21T10:58:33.175Z,22.7
2018-09-21T10:59:40.609Z,23.1
2018-09-21T11:00:47.831Z,23
2018-09-21T11:01:55.057Z,23.6
2018-09-21T11:03:02.276Z,24.9
2018-09-21T11:04:09.495Z,24.3
2018-09-21T11:05:16.717Z,24
2018-09-21T11:06:23.941Z,23.9
2018-09-21T11:07:30.896Z,24.4
2018-09-21T11:08:38.121Z,24.9
2018-09-21T11:09:45.338Z,23.7
2018-09-21T11:10:52.011Z,24.4
2018-09-21T11:11:59.228Z,23.2
2018-09-21T11:13:06.479Z,23.6
2018-09-21T11:14:13.935Z,23.8
2018-09-21T11:15:21.157Z,23.1
2018-09-21T11:16:28.374Z,23.7
2018-09-21T11:17:35.317Z,24
2018-09-21T11:18:42.269Z,24.7
2018-09-21T11:19:49.492Z,23.7
2018-09-21T11:20:56.710Z,23.2
2018-09-21T11:22:03.941Z,23.1
2018-09-21T11:23:10.882Z,23.1
2018-09-21T11:24:18.096Z,22
2018-09-21T11:25:25.328Z,22.9
2018-09-21T11:26:32.547Z,22.9
2018-09-21T11:27:39.772Z,23.7
2018-09-21T11:28:46.990Z,22.9
2018-09-21T11:29:54.317Z,22.7
2018-09-21T11:31:01.536Z,23.4
2018-09-21T11:32:08.759Z,23.6
2018-09-21T11:33:15.981Z,22.7
2018-09-21T11:35:29.840Z,22.8
2018-09-21T11:36:37.066Z,22.9
2018-09-21T11:37:44.293Z,22.9
2018-09-21T11:38:51.513Z,22.9
2018-09-21T11:39:58.738Z,19.7
2018-09-21T11:41:06.051Z,19
2018-09-21T11:42:13.637Z,20.4
2018-09-21T11:43:20.857Z,20.5
2018-09-21T11:44:28.082Z,20.6
2018-09-21T11:45:35.034Z,20.4
2018-09-21T11:46:42.311Z,20.3
2018-09-21T11:47:49.726Z,20.8
2018-09-21T11:48:57.235Z,21
2018-09-21T11:50:04.450Z,18.9
2018-09-21T11:51:11.672Z,19
2018-09-21T11:52:18.911Z,18.3
2018-09-21T11:53:26.126Z,18.3
2018-09-21T11:54:33.351Z,19.3
2018-09-21T11:55:40.570Z,19.1
2018-09-21T11:56:47.791Z,19.3
2018-09-21T11:57:55.017Z,19.1
2018-09-21T11:59:02.247Z,19.6
2018-09-21T12:00:09.467Z,19.4
2018-09-21T12:01:16.410Z,20.1
2018-09-21T12:02:23.628Z,21.7
2018-09-21T12:03:30.588Z,20.3
2018-09-21T12:04:37.800Z,20.9
2018-09-21T12:05:45.018Z,21.5
2018-09-21T12:06:52.249Z,20.4
2018-09-21T12:07:59.481Z,20.2
2018-09-21T12:09:06.445Z,20.8
2018-09-21T12:10:13.707Z,21
2018-09-21T12:11:20.926Z,21.9
2018-09-21T12:12:27.889Z,22.2
2018-09-21T12:13:35.101Z,19.7
2018-09-21T12:14:42.048Z,21.3
2018-09-21T12:15:49.282Z,22.4
2018-09-21T12:16:56.554Z,20.8
2018-09-21T12:18:03.973Z,19.2
2018-09-21T12:19:11.197Z,19.6
2018-09-21T12:20:18.156Z,18.7
2018-09-21T12:21:25.379Z,18.9
2018-09-21T12:22:32.650Z,19.1
2018-09-21T12:23:40.004Z,19.9
2018-09-21T12:24:47.382Z,20.6
2018-09-21T12:25:54.596Z,20
2018-09-21T12:27:01.816Z,20.1
2018-09-21T12:28:09.036Z,20
2018-09-21T12:29:16.256Z,20.5
2018-09-21T12:30:23.548Z,20.1
2018-09-21T12:31:31.078Z,19.8
2018-09-21T12:32:38.300Z,19.6
2018-09-21T12:33:45.517Z,20
2018-09-21T12:34:52.741Z,20.2
2018-09-21T12:35:59.756Z,21
2018-09-21T12:37:07.367Z,21.8
2018-09-21T12:38:14.587Z,19.9
2018-09-21T12:39:21.806Z,20.1
2018-09-21T12:40:29.042Z,20.5
2018-09-21T12:41:36.284Z,21
2018-09-21T12:42:43.700Z,20.7
2018-09-21T12:43:50.918Z,21.3
2018-09-21T12:44:58.144Z,21.3
2018-09-21T12:46:05.366Z,21.2
2018-09-21T12:47:12.591Z,21
2018-09-21T12:48:19.811Z,21.3
2018-09-21T12:49:27.034Z,21.9
2018-09-21T12:50:34.304Z,20.2
2018-09-21T12:51:41.646Z,20.4
2018-09-21T12:52:48.860Z,19.8
2018-09-21T12:53:56.089Z,21
2018-09-21T12:55:03.308Z,21.1
2018-09-21T12:56:10.529Z,21.9
2018-09-21T12:57:17.744Z,21.6
2018-09-21T12:58:25.037Z,22.4
2018-09-21T12:59:32.821Z,22.8
2018-09-21T13:00:40.049Z,22.9
2018-09-21T13:01:47.266Z,23.6
2018-09-21T13:02:54.485Z,23.9
2018-09-21T13:04:01.709Z,25.1
2018-09-21T13:05:08.657Z,25.2
2018-09-21T13:06:15.642Z,25.1
2018-09-21T13:07:22.803Z,25.2
2018-09-21T13:08:30.053Z,24.8
2018-09-21T13:09:37.275Z,24.1
2018-09-21T13:10:44.501Z,24.7
2018-09-21T13:11:51.721Z,24.7
2018-09-21T13:12:58.676Z,24.1
2018-09-21T13:14:05.890Z,24.7
2018-09-21T13:15:12.832Z,24.4
2018-09-21T13:16:20.069Z,23.4
2018-09-21T13:17:27.297Z,23.3
2018-09-21T13:18:34.240Z,22.8
2018-09-21T13:19:41.469Z,22.3
2018-09-21T13:20:48.424Z,23.8
2018-09-21T13:21:55.378Z,22.6
2018-09-21T13:23:02.603Z,23.3
2018-09-21T13:24:09.831Z,23.1
2018-09-21T13:25:17.057Z,22.4
2018-09-21T13:26:24.287Z,22.1
2018-09-21T13:27:31.513Z,22
2018-09-21T13:28:38.741Z,21.6
2018-09-21T13:29:46.002Z,21.5
2018-09-21T13:30:53.231Z,22.3
2018-09-21T13:32:00.465Z,21.5
2018-09-21T13:33:07.680Z,21.5
2018-09-21T13:34:14.624Z,21.4
2018-09-21T13:35:21.852Z,22
2018-09-21T13:36:28.801Z,21.9
2018-09-21T13:37:36.030Z,21.3
2018-09-21T13:38:43.246Z,21.3
2018-09-21T13:39:50.462Z,21.1
2018-09-21T13:40:57.407Z,21.4
2018-09-21T13:42:04.651Z,21.3
2018-09-21T13:43:11.908Z,21.3
2018-09-21T13:44:19.144Z,21.3
2018-09-21T13:45:26.365Z,21
2018-09-21T13:46:33.596Z,21.3
2018-09-21T13:47:40.551Z,21.3
2018-09-21T13:48:47.783Z,21.2
2018-09-21T13:49:55.009Z,21.8
2018-09-21T13:51:02.482Z,23.1
2018-09-21T13:52:09.734Z,23.8
2018-09-21T13:53:16.701Z,25.1
2018-09-21T13:54:23.391Z,24
2018-09-21T13:55:30.607Z,24.6
2018-09-21T13:56:37.838Z,23.9
2018-09-21T13:57:44.784Z,25.3
2018-09-21T13:58:52.010Z,24.2
2018-09-21T13:59:59.226Z,23.7
2018-09-21T14:01:06.442Z,24.5
2018-09-21T14:02:13.400Z,24.2
2018-09-21T14:03:20.355Z,23.8
2018-09-21T14:04:27.580Z,24.2
2018-09-21T14:05:34.838Z,27.2
2018-09-21T14:06:42.019Z,28
2018-09-21T14:07:49.246Z,32.6
2018-09-21T14:08:56.473Z,35.2
2018-09-21T14:10:03.691Z,31.9
2018-09-21T14:11:10.910Z,32.5
2018-09-21T14:12:18.143Z,37.5
2018-09-21T14:13:25.371Z,36.6
2018-09-21T14:14:32.595Z,36.8
2018-09-21T14:15:39.818Z,38.2
2018-09-21T14:16:46.766Z,39.9
2018-09-21T14:17:53.732Z,38.8
2018-09-21T14:19:00.953Z,36.8
2018-09-21T14:20:07.909Z,35.3
2018-09-21T14:21:14.913Z,38.9
2018-09-21T14:22:21.926Z,37
2018-09-21T14:23:28.876Z,35.4
2018-09-21T14:24:36.097Z,34.6
2018-09-21T14:25:43.369Z,35
2018-09-21T14:26:50.583Z,33.9
2018-09-21T14:27:57.803Z,33.9
2018-09-21T14:29:05.028Z,33.8
2018-09-21T14:30:12.567Z,35.4
2018-09-21T14:31:19.786Z,33.9
2018-09-21T14:32:26.999Z,32.5
2018-09-21T14:33:34.222Z,33.3
2018-09-21T14:34:41.442Z,33.8
2018-09-21T14:35:48.729Z,32.9
2018-09-21T14:36:56.098Z,34.5
2018-09-21T14:38:03.327Z,30.1
2018-09-21T14:39:10.557Z,30.9
2018-09-21T14:40:17.519Z,31.4
2018-09-21T14:41:24.743Z,30.9
2018-09-21T14:42:31.680Z,29.8
2018-09-21T14:43:38.618Z,29.7
2018-09-21T14:44:45.839Z,29.8
2018-09-21T14:45:52.785Z,30.5
2018-09-21T14:46:59.743Z,30.5
2018-09-21T14:48:06.680Z,39.6
2018-09-21T14:49:13.901Z,57.7
2018-09-21T14:50:21.124Z,90.9
2018-09-21T14:51:28.074Z,99.9
2018-09-21T14:52:35.297Z,99.9
2018-09-21T14:53:42.529Z,99.9
2018-09-21T14:54:49.500Z,99.9
2018-09-21T14:55:56.706Z,99.9
2018-09-21T14:57:03.645Z,99.9
2018-09-21T14:58:10.604Z,99.9
2018-09-21T14:59:17.834Z,99.9
2018-09-21T15:00:24.796Z,99.9
2018-09-21T15:01:31.738Z,99.9
2018-09-21T15:02:38.959Z,99.9